Levack, Canada
Current Conditions -  °F | °C
As of 2:00 PM on Monday 22 Dec 2014 (Local Time) from CYSB Reporting Station
Light Snow Light Snow  
Wind Chill: 16°   Ceiling: 3000
Heat Index: 27°   Visibility: 12mi
Dew Point: 25°   Wind: 12mph
Humidity: 93%   Direction: 140°SE
Pressure: 30.08"   Gusts: NA
Location:  46.63°N, 81.38°W
Report Text: CYSB 221900Z 14010KT 12SM -SN FEW010 OVC030 M03/M04 A3008 RMK CF1SC7 SLP207
Loading
Personal Weather Stations






























Interactive Weather Map New forecast layout! Learn more

10-Day Weather Forecast

Advertisements
Track Severe Weather on mobile